createdAt,value
2022-09-12T00:01:19.611Z,99.90
2022-09-12T00:03:47.291Z,99.90
2022-09-12T00:06:23.891Z,99.90
2022-09-12T00:08:54.215Z,99.90
2022-09-12T00:11:24.108Z,99.90
2022-09-12T00:13:51.053Z,99.90
2022-09-12T00:16:24.671Z,99.90
2022-09-12T00:18:53.669Z,99.90
2022-09-12T00:21:22.618Z,99.90
2022-09-12T00:23:52.371Z,99.90
2022-09-12T00:26:20.537Z,99.90
2022-09-12T00:28:50.673Z,99.90
2022-09-12T00:31:24.113Z,99.90
2022-09-12T00:33:56.606Z,99.90
2022-09-12T00:36:25.200Z,99.90
2022-09-12T00:38:54.968Z,99.90
2022-09-12T00:41:25.856Z,99.90
2022-09-12T00:44:00.947Z,99.90
2022-09-12T00:46:39.541Z,99.90
2022-09-12T00:49:14.323Z,99.90
2022-09-12T00:51:45.822Z,99.90
2022-09-12T00:54:19.388Z,99.90
2022-09-12T00:56:48.123Z,99.90
2022-09-12T00:59:24.996Z,99.90
2022-09-12T01:01:52.709Z,99.90
2022-09-12T01:04:25.931Z,99.90
2022-09-12T01:06:54.262Z,99.90
2022-09-12T01:09:24.485Z,99.90
2022-09-12T01:11:53.293Z,99.90
2022-09-12T01:14:20.883Z,99.90
2022-09-12T01:16:49.466Z,99.90
2022-09-12T01:19:25.071Z,99.90
2022-09-12T01:22:25.082Z,99.90
2022-09-12T01:25:26.979Z,99.90
2022-09-12T01:27:56.581Z,99.90
2022-09-12T01:30:39.932Z,99.90
2022-09-12T01:33:33.631Z,99.90
2022-09-12T01:36:09.200Z,99.90
2022-09-12T01:39:06.951Z,99.90
2022-09-12T01:41:57.984Z,99.90
2022-09-12T01:44:37.599Z,99.90
2022-09-12T01:47:22.307Z,99.90
2022-09-12T01:50:06.908Z,99.90
2022-09-12T01:53:04.268Z,99.90
2022-09-12T01:55:44.498Z,99.90
2022-09-12T01:58:27.059Z,99.90
2022-09-12T02:01:09.314Z,99.90
2022-09-12T02:04:14.964Z,99.90
2022-09-12T02:06:59.994Z,99.90
2022-09-12T02:09:36.981Z,99.90
2022-09-12T02:12:11.816Z,99.90
2022-09-12T02:14:43.079Z,99.90
2022-09-12T02:17:26.492Z,99.90
2022-09-12T02:20:00.104Z,99.90
2022-09-12T02:22:31.576Z,99.90
2022-09-12T02:25:02.732Z,99.90
2022-09-12T02:28:03.517Z,99.90
2022-09-12T02:30:37.362Z,99.90
2022-09-12T02:33:20.588Z,99.90
2022-09-12T02:36:00.458Z,99.90
2022-09-12T02:38:41.147Z,99.90
2022-09-12T02:41:10.846Z,99.90
2022-09-12T02:43:38.341Z,99.90
2022-09-12T02:46:10.592Z,99.90
2022-09-12T02:48:42.789Z,99.90
2022-09-12T02:51:11.331Z,99.90
2022-09-12T02:53:39.356Z,99.90
2022-09-12T02:56:14.916Z,99.90
2022-09-12T02:58:44.099Z,99.90
2022-09-12T03:01:28.953Z,99.90
2022-09-12T03:04:26.255Z,99.90
2022-09-12T03:07:01.543Z,99.90
2022-09-12T03:09:40.978Z,99.90
2022-09-12T03:12:23.090Z,99.90
2022-09-12T03:15:18.487Z,99.90
2022-09-12T03:18:19.237Z,99.90
2022-09-12T03:20:52.816Z,99.90
2022-09-12T03:23:35.512Z,99.90
2022-09-12T03:26:26.443Z,99.90
2022-09-12T03:28:55.925Z,99.90
2022-09-12T03:31:25.386Z,99.90
2022-09-12T03:33:52.348Z,99.90
2022-09-12T03:36:27.756Z,99.90
2022-09-12T03:38:56.995Z,99.90
2022-09-12T03:41:25.928Z,99.90
2022-09-12T03:43:57.018Z,99.90
2022-09-12T03:46:28.621Z,99.90
2022-09-12T03:48:58.191Z,99.90
2022-09-12T03:51:25.067Z,99.90
2022-09-12T03:53:54.433Z,99.90
2022-09-12T03:56:21.632Z,99.90
2022-09-12T03:58:48.835Z,99.90
2022-09-12T04:01:19.951Z,99.90
2022-09-12T04:03:49.660Z,99.90
2022-09-12T04:06:23.181Z,99.90
2022-09-12T04:08:54.648Z,99.90
2022-09-12T04:11:25.263Z,99.90
2022-09-12T04:13:52.475Z,99.90
2022-09-12T04:16:19.644Z,99.90
2022-09-12T04:18:49.478Z,99.90
2022-09-12T04:21:19.539Z,99.90
2022-09-12T04:23:46.498Z,99.90
2022-09-12T04:26:17.763Z,99.90
2022-09-12T04:28:46.204Z,99.90
2022-09-12T04:31:18.097Z,99.90
2022-09-12T04:33:45.573Z,99.90
2022-09-12T04:36:16.745Z,99.90
2022-09-12T04:38:49.065Z,99.90
2022-09-12T04:41:24.104Z,99.90
2022-09-12T04:44:05.455Z,99.90
2022-09-12T04:46:37.623Z,99.90
2022-09-12T04:49:04.972Z,99.90
2022-09-12T04:51:33.738Z,99.90
2022-09-12T04:54:06.293Z,99.90
2022-09-12T04:56:37.016Z,99.90
2022-09-12T04:59:07.122Z,99.90
2022-09-12T05:01:34.830Z,99.90
2022-09-12T05:04:02.198Z,99.90
2022-09-12T05:06:34.676Z,99.90
2022-09-12T05:09:04.317Z,99.90
2022-09-12T05:12:02.606Z,99.90
2022-09-12T05:14:23.327Z,99.90
2022-09-12T05:16:50.275Z,99.90
2022-09-12T05:19:23.230Z,99.90
2022-09-12T05:21:50.376Z,99.90
2022-09-12T05:24:19.693Z,99.90
2022-09-12T05:26:46.582Z,99.90
2022-09-12T05:29:15.902Z,99.90
2022-09-12T05:31:52.353Z,99.90
2022-09-12T05:34:20.565Z,99.90
2022-09-12T05:36:47.885Z,99.90
2022-09-12T05:39:15.059Z,99.90
2022-09-12T05:41:42.366Z,99.90
2022-09-12T05:44:11.882Z,99.90
2022-09-12T05:46:44.894Z,99.90
2022-09-12T05:49:15.971Z,99.90
2022-09-12T05:51:45.329Z,99.90
2022-09-12T05:54:15.140Z,99.90
2022-09-12T05:56:45.494Z,99.90
2022-09-12T05:59:24.041Z,99.90
2022-09-12T06:01:53.348Z,99.90
2022-09-12T06:04:23.836Z,99.90
2022-09-12T06:06:51.947Z,99.90
2022-09-12T06:09:21.438Z,99.90
2022-09-12T06:11:50.653Z,99.90
2022-09-12T06:14:23.238Z,99.90
2022-09-12T06:16:54.984Z,99.90
2022-09-12T06:19:27.817Z,99.90
2022-09-12T06:21:57.131Z,99.90
2022-09-12T06:24:24.173Z,99.90
2022-09-12T06:26:52.896Z,99.90
2022-09-12T06:29:22.723Z,99.90
2022-09-12T06:31:58.731Z,99.90
2022-09-12T06:34:28.106Z,99.90
2022-09-12T06:36:58.076Z,99.90
2022-09-12T06:39:26.164Z,99.90
2022-09-12T06:41:55.553Z,99.90
2022-09-12T06:44:33.722Z,99.90
2022-09-12T06:47:00.810Z,99.90
2022-09-12T06:49:27.842Z,99.90
2022-09-12T06:51:57.218Z,99.90
2022-09-12T06:54:25.650Z,99.90
2022-09-12T06:56:54.976Z,99.90
2022-09-12T06:59:25.106Z,99.90
2022-09-12T07:01:54.244Z,99.90
2022-09-12T07:04:22.079Z,99.90
2022-09-12T07:06:49.040Z,99.90
2022-09-12T07:09:18.872Z,99.90
2022-09-12T07:11:46.699Z,99.90
2022-09-12T07:14:14.754Z,99.90
2022-09-12T07:16:42.480Z,99.90
2022-09-12T07:19:10.164Z,99.90
2022-09-12T07:21:40.206Z,99.90
2022-09-12T07:24:09.596Z,99.90
2022-09-12T07:26:36.671Z,99.90
2022-09-12T07:29:34.793Z,99.90
2022-09-12T07:31:55.047Z,99.90
2022-09-12T07:34:24.595Z,99.90
2022-09-12T07:36:53.700Z,99.90
2022-09-12T07:39:20.725Z,99.90
2022-09-12T07:41:50.182Z,99.90
2022-09-12T07:44:17.426Z,99.90
2022-09-12T07:46:46.467Z,99.90
2022-09-12T07:49:13.477Z,99.90
2022-09-12T07:51:41.214Z,99.90
2022-09-12T07:54:09.369Z,99.90
2022-09-12T07:56:39.698Z,99.90
2022-09-12T07:59:07.767Z,99.90
2022-09-12T08:01:35.095Z,99.90
2022-09-12T08:04:03.428Z,99.90
2022-09-12T08:06:32.221Z,99.90
2022-09-12T08:09:05.755Z,99.90
2022-09-12T08:11:35.799Z,99.90
2022-09-12T08:14:07.378Z,99.90
2022-09-12T08:16:35.739Z,99.90
2022-09-12T08:19:03.722Z,99.90
2022-09-12T08:21:32.716Z,99.90
2022-09-12T08:24:04.914Z,99.90
2022-09-12T08:26:33.583Z,99.90
2022-09-12T08:29:00.913Z,99.90
2022-09-12T08:31:28.854Z,99.90
2022-09-12T08:33:57.329Z,99.90
2022-09-12T08:36:26.836Z,99.90
2022-09-12T08:39:04.531Z,99.90
2022-09-12T08:41:37.222Z,99.90
2022-09-12T08:44:28.431Z,99.90
2022-09-12T08:47:22.062Z,99.90
2022-09-12T08:50:10.029Z,99.90
2022-09-12T08:52:50.634Z,99.90
2022-09-12T08:55:45.296Z,99.90
2022-09-12T08:58:22.789Z,99.90
2022-09-12T09:01:07.131Z,99.90
2022-09-12T09:03:34.133Z,99.90
2022-09-12T09:06:25.738Z,99.90
2022-09-12T09:09:13.773Z,99.90
2022-09-12T09:12:06.620Z,99.90
2022-09-12T09:14:58.038Z,99.90
2022-09-12T09:17:36.638Z,99.90
2022-09-12T09:20:18.849Z,99.90
2022-09-12T09:23:17.437Z,99.90
2022-09-12T09:25:55.347Z,99.90
2022-09-12T09:28:42.459Z,99.90
2022-09-12T09:31:16.250Z,99.90
2022-09-12T09:33:44.491Z,99.90
2022-09-12T09:36:51.725Z,99.90
2022-09-12T09:39:34.519Z,99.90
2022-09-12T09:42:01.379Z,99.90
2022-09-12T09:44:29.716Z,99.90
2022-09-12T09:46:59.601Z,99.90
2022-09-12T09:49:32.090Z,99.90
2022-09-12T09:52:02.702Z,99.90
2022-09-12T09:54:40.816Z,99.90
2022-09-12T09:57:34.686Z,99.90
2022-09-12T10:00:21.762Z,99.90
2022-09-12T10:03:41.373Z,99.90
2022-09-12T10:06:20.818Z,99.90
2022-09-12T10:08:49.119Z,99.90
2022-09-12T10:11:16.037Z,99.90
2022-09-12T10:14:00.739Z,99.90
2022-09-12T10:16:49.093Z,99.50
2022-09-12T10:19:25.092Z,99.30
2022-09-12T10:21:55.876Z,99.30
2022-09-12T10:24:34.174Z,98.20
2022-09-12T10:27:16.235Z,97.00
2022-09-12T10:29:54.578Z,95.90
2022-09-12T10:32:31.112Z,95.90
2022-09-12T10:35:09.031Z,94.60
2022-09-12T10:37:39.648Z,93.60
2022-09-12T10:40:22.615Z,92.90
2022-09-12T10:42:53.673Z,93.60
2022-09-12T10:45:26.439Z,92.20
2022-09-12T10:48:22.702Z,92.10
2022-09-12T10:50:49.672Z,91.10
2022-09-12T10:53:24.714Z,90.50
2022-09-12T10:56:33.327Z,88.40
2022-09-12T10:59:09.303Z,88.70
2022-09-12T11:02:02.442Z,89.80
2022-09-12T11:04:34.866Z,87.30
2022-09-12T11:07:35.465Z,89.60
2022-09-12T11:10:23.590Z,87.10
2022-09-12T11:12:54.613Z,86.80
2022-09-12T11:15:24.923Z,88.70
2022-09-12T11:18:28.827Z,85.60
2022-09-12T11:21:16.083Z,84.10
2022-09-12T11:24:01.074Z,84.60
2022-09-12T11:26:53.174Z,83.40
2022-09-12T11:29:41.846Z,82.00
2022-09-12T11:32:20.053Z,81.10
2022-09-12T12:00:53.074Z,74.20
2022-09-12T12:03:32.411Z,74.20
2022-09-12T12:06:25.983Z,74.90
2022-09-12T12:08:53.769Z,71.00
2022-09-12T12:14:50.541Z,71.60
2022-09-12T12:20:54.086Z,72.30
2022-09-12T12:23:38.825Z,71.40
2022-09-12T12:26:06.437Z,71.60
2022-09-12T12:28:42.445Z,71.30
2022-09-12T12:31:18.222Z,70.90
2022-09-12T12:33:45.357Z,70.80
2022-09-12T12:36:30.346Z,69.80
2022-09-12T12:38:57.592Z,70.00
2022-09-12T12:41:36.768Z,70.80
2022-09-12T12:44:42.316Z,69.10
2022-09-12T12:47:21.932Z,70.90
2022-09-12T12:49:57.018Z,69.70
2022-09-12T12:52:29.224Z,69.90
2022-09-12T12:55:00.080Z,72.00
2022-09-12T12:57:40.595Z,69.30
2022-09-12T13:00:34.996Z,70.30
2022-09-12T13:03:07.407Z,69.50
2022-09-12T13:05:50.592Z,69.20
2022-09-12T13:08:17.423Z,71.30
2022-09-12T13:11:02.089Z,68.10
2022-09-12T13:14:01.694Z,68.30
2022-09-12T13:16:32.481Z,67.60
2022-09-12T13:19:18.012Z,65.80
2022-09-12T13:22:08.251Z,66.00
2022-09-12T13:24:49.098Z,66.30
2022-09-12T13:27:19.573Z,64.90
2022-09-12T13:29:46.543Z,65.20
2022-09-12T13:32:17.949Z,61.70
2022-09-12T13:35:05.731Z,60.00
2022-09-12T13:37:51.595Z,62.10
2022-09-12T13:40:20.875Z,63.90
2022-09-12T13:42:48.718Z,65.40
2022-09-12T13:45:21.969Z,64.50
2022-09-12T13:47:55.384Z,65.80
2022-09-12T13:50:28.172Z,64.50
2022-09-12T13:53:14.947Z,64.00
2022-09-12T13:55:46.225Z,63.30
2022-09-12T13:58:20.699Z,62.30
2022-09-12T14:00:59.709Z,61.80
2022-09-12T14:03:46.873Z,61.40
2022-09-12T14:06:16.584Z,61.90
2022-09-12T14:08:48.423Z,61.00
2022-09-12T14:11:29.724Z,60.70
2022-09-12T14:13:59.741Z,61.10
2022-09-12T14:16:29.174Z,60.10
2022-09-12T14:18:57.551Z,58.70
2022-09-12T14:21:30.605Z,59.40
2022-09-12T14:24:00.800Z,59.70
2022-09-12T14:26:36.339Z,60.00
2022-09-12T14:29:08.867Z,60.50
2022-09-12T14:31:38.166Z,59.80
2022-09-12T14:34:23.291Z,59.50
2022-09-12T14:36:52.632Z,59.60
2022-09-12T14:39:19.675Z,59.40
2022-09-12T14:41:46.616Z,59.20
2022-09-12T14:44:21.055Z,59.30
2022-09-12T14:46:51.137Z,58.90
2022-09-12T14:49:21.380Z,58.00
2022-09-12T14:52:21.578Z,58.80
2022-09-12T14:55:20.299Z,58.80
2022-09-12T14:58:23.793Z,58.90
2022-09-12T15:01:02.705Z,60.10
2022-09-12T15:03:29.616Z,60.60
2022-09-12T15:05:57.600Z,60.00
2022-09-12T15:08:28.145Z,60.70
2022-09-12T15:10:55.799Z,60.00
2022-09-12T15:13:28.561Z,58.80
2022-09-12T15:15:57.143Z,58.50
2022-09-12T15:18:26.290Z,58.30
2022-09-12T15:21:03.435Z,58.40
2022-09-12T15:23:50.539Z,58.50
2022-09-12T15:26:20.250Z,57.90
2022-09-12T15:28:53.183Z,58.70
2022-09-12T15:31:31.505Z,58.90
2022-09-12T15:34:02.600Z,58.50
2022-09-12T15:36:32.086Z,58.00
2022-09-12T15:38:59.129Z,58.40
2022-09-12T15:41:33.416Z,57.90
2022-09-12T15:44:08.158Z,58.00
2022-09-12T15:46:35.227Z,59.70
2022-09-12T15:49:02.194Z,58.60
2022-09-12T15:51:29.215Z,60.30
2022-09-12T15:53:56.034Z,60.00
2022-09-12T15:56:25.725Z,59.00
2022-09-12T15:58:59.343Z,59.50
2022-09-12T16:01:28.534Z,58.40
2022-09-12T16:03:56.056Z,58.70
2022-09-12T16:06:23.670Z,58.80
2022-09-12T16:08:53.085Z,59.70
2022-09-12T16:11:27.315Z,60.80
2022-09-12T16:13:58.357Z,60.40
2022-09-12T16:16:25.460Z,60.00
2022-09-12T16:18:54.795Z,61.00
2022-09-12T16:21:21.935Z,60.70
2022-09-12T16:23:49.063Z,60.30
2022-09-12T16:26:16.168Z,59.50
2022-09-12T16:28:46.078Z,59.80
2022-09-12T16:31:14.469Z,59.60
2022-09-12T16:33:42.186Z,59.80
2022-09-12T16:36:15.787Z,59.90
2022-09-12T16:38:46.982Z,59.90
2022-09-12T16:41:18.572Z,61.00
2022-09-12T16:43:47.955Z,61.10
2022-09-12T16:46:20.100Z,61.80
2022-09-12T16:48:52.687Z,61.40
2022-09-12T16:51:31.154Z,62.10
2022-09-12T16:53:58.351Z,62.40
2022-09-12T16:56:25.523Z,63.10
2022-09-12T16:58:53.218Z,63.70
2022-09-12T17:01:24.861Z,64.50
2022-09-12T17:03:56.671Z,65.50
2022-09-12T17:06:25.495Z,66.20
2022-09-12T17:08:53.944Z,67.10
2022-09-12T17:11:32.220Z,68.20
2022-09-12T17:14:05.297Z,68.90
2022-09-12T17:16:36.567Z,70.10
2022-09-12T17:19:04.406Z,71.10
2022-09-12T17:21:34.186Z,72.20
2022-09-12T17:24:08.895Z,72.90
2022-09-12T17:26:36.008Z,73.80
2022-09-12T17:29:03.324Z,74.40
2022-09-12T17:31:33.375Z,75.60
2022-09-12T17:34:01.701Z,76.50
2022-09-12T17:36:32.092Z,77.60
2022-09-12T17:38:59.612Z,78.40
2022-09-12T17:41:29.165Z,79.80
2022-09-12T17:43:57.234Z,81.20
2022-09-12T17:46:31.161Z,82.30
2022-09-12T17:49:01.123Z,83.60
2022-09-12T17:51:31.186Z,83.40
2022-09-12T17:54:04.463Z,85.00
2022-09-12T17:56:33.036Z,86.00
2022-09-12T17:59:01.752Z,87.00
2022-09-12T18:01:48.804Z,86.60
2022-09-12T18:04:20.020Z,88.60
2022-09-12T18:06:50.300Z,89.20
2022-09-12T18:09:22.548Z,89.00
2022-09-12T18:11:50.015Z,88.60
2022-09-12T18:14:17.715Z,89.70
2022-09-12T18:16:45.598Z,90.40
2022-09-12T18:19:16.163Z,90.80
2022-09-12T18:21:50.586Z,91.30
2022-09-12T18:24:19.984Z,91.80
2022-09-12T18:26:47.350Z,92.50
2022-09-12T18:29:21.306Z,92.70
2022-09-12T18:31:48.792Z,93.00
2022-09-12T18:34:17.375Z,93.10
2022-09-12T18:36:51.536Z,93.20
2022-09-12T18:39:18.567Z,93.80
2022-09-12T18:41:45.539Z,94.70
2022-09-12T18:44:12.791Z,94.90
2022-09-12T18:46:40.059Z,95.50
2022-09-12T18:49:19.466Z,96.10
2022-09-12T18:51:48.620Z,96.90
2022-09-12T18:54:17.704Z,97.80
2022-09-12T18:56:45.645Z,98.70
2022-09-12T18:59:15.434Z,99.60
2022-09-12T19:01:48.061Z,99.90
2022-09-12T19:04:19.830Z,99.90
2022-09-12T19:07:19.704Z,99.90
2022-09-12T19:09:49.170Z,99.90
2022-09-12T19:12:16.082Z,99.90
2022-09-12T19:14:45.159Z,99.90
2022-09-12T19:17:14.781Z,99.90
2022-09-12T19:19:44.293Z,99.90
2022-09-12T19:22:13.830Z,99.90
2022-09-12T19:25:06.497Z,99.90
2022-09-12T19:27:33.502Z,99.90
2022-09-12T19:30:00.519Z,99.90
2022-09-12T19:32:27.658Z,99.90
2022-09-12T19:34:59.551Z,99.90
2022-09-12T19:37:29.815Z,99.90
2022-09-12T19:39:59.084Z,99.90
2022-09-12T19:42:26.484Z,99.90
2022-09-12T19:44:55.793Z,99.90
2022-09-12T19:47:23.578Z,99.90
2022-09-12T19:49:50.963Z,99.90
2022-09-12T19:52:20.685Z,99.90
2022-09-12T19:54:52.378Z,99.90
2022-09-12T19:57:19.346Z,99.90
2022-09-12T19:59:48.544Z,99.90
2022-09-12T20:02:15.639Z,99.90
2022-09-12T20:04:42.670Z,99.90
2022-09-12T20:07:11.824Z,99.90
2022-09-12T20:09:38.812Z,99.90
2022-09-12T20:12:08.301Z,99.90
2022-09-12T20:14:35.419Z,99.90
2022-09-12T20:17:02.526Z,99.90
2022-09-12T20:19:31.510Z,99.90
2022-09-12T20:21:58.819Z,99.90
2022-09-12T20:24:26.541Z,99.90
2022-09-12T20:26:58.213Z,99.90
2022-09-12T20:29:27.939Z,99.90
2022-09-12T20:31:57.728Z,99.90
2022-09-12T20:34:24.678Z,99.90
2022-09-12T20:36:51.810Z,99.90
2022-09-12T20:39:21.434Z,99.90
2022-09-12T20:41:52.783Z,99.90
2022-09-12T20:44:20.377Z,99.90
2022-09-12T20:46:50.512Z,99.90
2022-09-12T20:49:20.070Z,99.90
2022-09-12T20:51:48.671Z,99.90
2022-09-12T20:54:21.491Z,99.90
2022-09-12T20:56:49.052Z,99.90
2022-09-12T20:59:16.330Z,99.90
2022-09-12T21:01:44.092Z,99.90
2022-09-12T21:04:14.895Z,99.90
2022-09-12T21:06:42.336Z,99.90
2022-09-12T21:09:11.786Z,99.90
2022-09-12T21:11:38.779Z,99.90
2022-09-12T21:14:08.376Z,99.90
2022-09-12T21:16:38.901Z,99.90
2022-09-12T21:19:06.971Z,99.90
2022-09-12T21:21:34.627Z,99.90
2022-09-12T21:24:04.694Z,99.90
2022-09-12T21:26:35.310Z,99.90
2022-09-12T21:29:09.393Z,99.90
2022-09-12T21:31:37.356Z,99.90
2022-09-12T21:34:04.611Z,99.90
2022-09-12T21:36:33.904Z,99.90
2022-09-12T21:39:03.946Z,99.90
2022-09-12T21:41:36.512Z,99.90
2022-09-12T21:44:05.706Z,99.90
2022-09-12T21:46:37.511Z,99.90
2022-09-12T21:49:04.537Z,99.90
2022-09-12T21:51:34.430Z,99.90
2022-09-12T21:54:04.024Z,99.90
2022-09-12T21:56:31.234Z,99.90
2022-09-12T21:58:58.768Z,99.90
2022-09-12T22:01:28.048Z,99.90
2022-09-12T22:03:57.281Z,99.90
2022-09-12T22:06:26.351Z,99.90
2022-09-12T22:08:53.266Z,99.90
2022-09-12T22:11:20.673Z,99.90
2022-09-12T22:13:47.674Z,99.90
2022-09-12T22:16:17.791Z,99.90
2022-09-12T22:18:47.093Z,99.90
2022-09-12T22:21:20.034Z,99.90
2022-09-12T22:24:05.356Z,99.90
2022-09-12T22:26:39.221Z,99.90
2022-09-12T22:29:10.148Z,99.90
2022-09-12T22:31:37.995Z,99.90
2022-09-12T22:34:07.384Z,99.90
2022-09-12T22:36:41.160Z,99.90
2022-09-12T22:39:08.447Z,99.90
2022-09-12T22:41:35.297Z,99.90
2022-09-12T22:44:05.178Z,99.90
2022-09-12T22:46:37.872Z,99.90
2022-09-12T22:49:09.178Z,99.90
2022-09-12T22:51:36.269Z,99.90
2022-09-12T22:54:03.248Z,99.90
2022-09-12T22:56:30.241Z,99.90
2022-09-12T22:58:57.182Z,99.90
2022-09-12T23:01:26.618Z,99.90
2022-09-12T23:03:55.606Z,99.90
2022-09-12T23:06:22.557Z,99.90
2022-09-12T23:08:51.901Z,99.90
2022-09-12T23:11:23.253Z,99.90
2022-09-12T23:13:52.835Z,99.90
2022-09-12T23:16:28.276Z,99.90
2022-09-12T23:18:57.906Z,99.90
2022-09-12T23:21:25.241Z,99.90
2022-09-12T23:23:56.430Z,99.90
2022-09-12T23:26:25.196Z,99.90
2022-09-12T23:28:55.146Z,99.90
2022-09-12T23:31:27.493Z,99.90
2022-09-12T23:34:01.886Z,99.90
2022-09-12T23:36:31.402Z,99.90
2022-09-12T23:38:58.596Z,99.90
2022-09-12T23:41:29.554Z,99.90
2022-09-12T23:43:56.504Z,99.90
2022-09-12T23:46:25.919Z,99.90
2022-09-12T23:48:55.042Z,99.90
2022-09-12T23:51:27.017Z,99.90
2022-09-12T23:53:56.513Z,99.90
2022-09-12T23:56:25.852Z,99.90
2022-09-12T23:58:55.017Z,99.90
